Abbott, Pennsylvania
Current Conditions -  °F | °C
As of 8:15 AM on Monday 22 Dec 2014 (Local Time) from KN38 Reporting Station
Clear Clear  
Wind Chill: 21°   Ceiling: Unl
Heat Index: 21°   Visibility: 9mi
Dew Point: 21°   Wind: 0mph
Humidity: 100%   Direction: NA
Pressure: 30.2"   Gusts: NA
Location:  41.6755°N, 77.7071°W
Report Text: KN38 221315Z AUTO 00000KT 9SM CLR M06/M06 A3020 RMK AO2
Loading
Personal Weather Stations






























Interactive Weather Map New forecast layout! Learn more

10-Day Weather Forecast

Advertisements
Track Severe Weather on mobile